Stratford, Canada
Current Conditions -  °F | °C
As of 6:00 PM on Thursday 27 Nov 2014 (Local Time) from CYXU Reporting Station
Snow Showers Snow Showers  
Wind Chill: 18°   Ceiling: 700
Heat Index: 28°   Visibility: 2mi
Dew Point: 27°   Wind: 13mph
Humidity: 93%   Direction: 310°NW
Pressure: 30.1"   Gusts: 24mph
Location:  43.37°N, 80.98°W
Report Text: CYXU 272300Z 31011G21KT 2SM R15/5500VP6000FT/D -SHSN BKN007 OVC014TCU M02/M03 A3010 RMK SN4CF1TCU3 VIS VRB 1-3 SLP206
Loading
Personal Weather Stations






























Interactive Weather Map New forecast layout! Learn more

10-Day Weather Forecast

Advertisements
Track Severe Weather on mobile